sensor_id;sensor_type;location;lat;lon;timestamp;P1;durP1;ratioP1;P2;durP2;ratioP2
7158;SDS011;3621;52.374;13.098;2022-08-19T00:01:19;6.90;;;6.40;;
7158;SDS011;3621;52.374;13.098;2022-08-19T00:03:46;7.97;;;7.37;;
7158;SDS011;3621;52.374;13.098;2022-08-19T00:06:13;6.67;;;6.17;;
7158;SDS011;3621;52.374;13.098;2022-08-19T00:08:40;8.43;;;7.77;;
7158;SDS011;3621;52.374;13.098;2022-08-19T00:11:08;8.33;;;7.73;;
7158;SDS011;3621;52.374;13.098;2022-08-19T00:13:36;8.20;;;7.60;;
7158;SDS011;3621;52.374;13.098;2022-08-19T00:16:04;7.80;;;7.20;;
7158;SDS011;3621;52.374;13.098;2022-08-19T00:18:31;7.30;;;6.70;;
7158;SDS011;3621;52.374;13.098;2022-08-19T00:20:58;8.40;;;7.60;;
7158;SDS011;3621;52.374;13.098;2022-08-19T00:23:26;7.80;;;7.17;;
7158;SDS011;3621;52.374;13.098;2022-08-19T00:25:53;9.07;;;8.37;;
7158;SDS011;3621;52.374;13.098;2022-08-19T00:28:20;7.47;;;6.97;;
7158;SDS011;3621;52.374;13.098;2022-08-19T00:30:48;7.47;;;6.97;;
7158;SDS011;3621;52.374;13.098;2022-08-19T00:33:16;6.83;;;6.33;;
7158;SDS011;3621;52.374;13.098;2022-08-19T00:35:43;8.20;;;7.40;;
7158;SDS011;3621;52.374;13.098;2022-08-19T00:38:10;7.40;;;6.80;;
7158;SDS011;3621;52.374;13.098;2022-08-19T00:40:37;7.40;;;6.90;;
7158;SDS011;3621;52.374;13.098;2022-08-19T00:43:07;6.73;;;6.23;;
7158;SDS011;3621;52.374;13.098;2022-08-19T00:45:35;8.00;;;7.30;;
7158;SDS011;3621;52.374;13.098;2022-08-19T00:48:03;7.40;;;6.80;;
7158;SDS011;3621;52.374;13.098;2022-08-19T00:50:31;7.27;;;6.67;;
7158;SDS011;3621;52.374;13.098;2022-08-19T00:52:58;8.03;;;7.33;;
7158;SDS011;3621;52.374;13.098;2022-08-19T00:55:29;10.30;;;7.70;;
7158;SDS011;3621;52.374;13.098;2022-08-19T00:58:00;8.20;;;7.50;;
7158;SDS011;3621;52.374;13.098;2022-08-19T01:00:30;8.70;;;8.10;;
7158;SDS011;3621;52.374;13.098;2022-08-19T01:02:58;6.53;;;6.13;;
7158;SDS011;3621;52.374;13.098;2022-08-19T01:05:27;7.60;;;7.10;;
7158;SDS011;3621;52.374;13.098;2022-08-19T01:07:55;6.17;;;5.77;;
7158;SDS011;3621;52.374;13.098;2022-08-19T01:10:33;5.57;;;5.20;;
7158;SDS011;3621;52.374;13.098;2022-08-19T01:13:05;8.03;;;6.87;;
7158;SDS011;3621;52.374;13.098;2022-08-19T01:15:40;8.63;;;7.93;;
7158;SDS011;3621;52.374;13.098;2022-08-19T01:18:09;7.07;;;6.57;;
7158;SDS011;3621;52.374;13.098;2022-08-19T01:20:40;7.83;;;7.23;;
7158;SDS011;3621;52.374;13.098;2022-08-19T01:23:09;8.33;;;7.63;;
7158;SDS011;3621;52.374;13.098;2022-08-19T01:25:39;7.10;;;6.60;;
7158;SDS011;3621;52.374;13.098;2022-08-19T01:28:13;7.17;;;6.67;;
7158;SDS011;3621;52.374;13.098;2022-08-19T01:30:43;7.23;;;6.73;;
7158;SDS011;3621;52.374;13.098;2022-08-19T01:33:11;7.50;;;6.90;;
7158;SDS011;3621;52.374;13.098;2022-08-19T01:35:38;7.33;;;6.77;;
7158;SDS011;3621;52.374;13.098;2022-08-19T01:38:07;6.87;;;6.37;;
7158;SDS011;3621;52.374;13.098;2022-08-19T01:40:37;8.20;;;7.57;;
7158;SDS011;3621;52.374;13.098;2022-08-19T01:43:07;9.43;;;8.60;;
7158;SDS011;3621;52.374;13.098;2022-08-19T01:45:34;7.50;;;7.00;;
7158;SDS011;3621;52.374;13.098;2022-08-19T01:48:02;8.03;;;7.43;;
7158;SDS011;3621;52.374;13.098;2022-08-19T01:50:30;7.47;;;6.97;;
7158;SDS011;3621;52.374;13.098;2022-08-19T01:52:58;7.30;;;6.80;;
7158;SDS011;3621;52.374;13.098;2022-08-19T01:55:27;6.83;;;6.33;;
7158;SDS011;3621;52.374;13.098;2022-08-19T01:57:55;7.27;;;6.57;;
7158;SDS011;3621;52.374;13.098;2022-08-19T02:00:26;9.50;;;8.50;;
7158;SDS011;3621;52.374;13.098;2022-08-19T02:02:55;9.47;;;8.20;;
7158;SDS011;3621;52.374;13.098;2022-08-19T02:05:22;9.33;;;8.20;;
7158;SDS011;3621;52.374;13.098;2022-08-19T02:07:50;9.17;;;8.37;;
7158;SDS011;3621;52.374;13.098;2022-08-19T02:10:18;11.53;;;8.77;;
7158;SDS011;3621;52.374;13.098;2022-08-19T02:12:48;8.90;;;8.10;;
7158;SDS011;3621;52.374;13.098;2022-08-19T02:15:15;9.43;;;8.43;;
7158;SDS011;3621;52.374;13.098;2022-08-19T02:17:43;9.10;;;8.40;;
7158;SDS011;3621;52.374;13.098;2022-08-19T02:20:11;8.73;;;7.93;;
7158;SDS011;3621;52.374;13.098;2022-08-19T02:22:39;12.20;;;8.60;;
7158;SDS011;3621;52.374;13.098;2022-08-19T02:25:07;9.60;;;8.83;;
7158;SDS011;3621;52.374;13.098;2022-08-19T02:27:34;11.07;;;9.10;;
7158;SDS011;3621;52.374;13.098;2022-08-19T02:30:03;9.37;;;8.50;;
7158;SDS011;3621;52.374;13.098;2022-08-19T02:32:31;9.20;;;8.50;;
7158;SDS011;3621;52.374;13.098;2022-08-19T02:34:58;8.07;;;7.43;;
7158;SDS011;3621;52.374;13.098;2022-08-19T02:37:25;10.03;;;9.00;;
7158;SDS011;3621;52.374;13.098;2022-08-19T02:40:21;9.37;;;8.60;;
7158;SDS011;3621;52.374;13.098;2022-08-19T02:42:48;9.97;;;8.70;;
7158;SDS011;3621;52.374;13.098;2022-08-19T02:45:17;9.50;;;8.50;;
7158;SDS011;3621;52.374;13.098;2022-08-19T02:47:44;10.07;;;8.00;;
7158;SDS011;3621;52.374;13.098;2022-08-19T02:50:10;10.43;;;9.53;;
7158;SDS011;3621;52.374;13.098;2022-08-19T02:52:37;9.80;;;8.80;;
7158;SDS011;3621;52.374;13.098;2022-08-19T02:55:05;8.90;;;8.10;;
7158;SDS011;3621;52.374;13.098;2022-08-19T02:57:32;9.27;;;8.50;;
7158;SDS011;3621;52.374;13.098;2022-08-19T03:00:00;8.83;;;8.23;;
7158;SDS011;3621;52.374;13.098;2022-08-19T03:02:31;8.10;;;7.40;;
7158;SDS011;3621;52.374;13.098;2022-08-19T03:04:58;8.53;;;7.83;;
7158;SDS011;3621;52.374;13.098;2022-08-19T03:07:26;7.70;;;7.20;;
7158;SDS011;3621;52.374;13.098;2022-08-19T03:09:53;8.13;;;7.53;;
7158;SDS011;3621;52.374;13.098;2022-08-19T03:12:20;9.20;;;8.40;;
7158;SDS011;3621;52.374;13.098;2022-08-19T03:14:47;8.83;;;7.93;;
7158;SDS011;3621;52.374;13.098;2022-08-19T03:17:14;8.70;;;8.00;;
7158;SDS011;3621;52.374;13.098;2022-08-19T03:19:42;7.77;;;7.27;;
7158;SDS011;3621;52.374;13.098;2022-08-19T03:22:09;7.20;;;6.70;;
7158;SDS011;3621;52.374;13.098;2022-08-19T03:24:37;7.30;;;6.80;;
7158;SDS011;3621;52.374;13.098;2022-08-19T03:27:05;9.60;;;8.70;;
7158;SDS011;3621;52.374;13.098;2022-08-19T03:29:32;9.23;;;7.50;;
7158;SDS011;3621;52.374;13.098;2022-08-19T03:31:59;8.17;;;7.63;;
7158;SDS011;3621;52.374;13.098;2022-08-19T03:34:29;7.80;;;7.20;;
7158;SDS011;3621;52.374;13.098;2022-08-19T03:36:58;7.33;;;6.73;;
7158;SDS011;3621;52.374;13.098;2022-08-19T03:39:29;7.17;;;6.67;;
7158;SDS011;3621;52.374;13.098;2022-08-19T03:41:56;7.50;;;6.90;;
7158;SDS011;3621;52.374;13.098;2022-08-19T03:44:25;6.93;;;6.53;;
7158;SDS011;3621;52.374;13.098;2022-08-19T03:46:53;7.50;;;6.90;;
7158;SDS011;3621;52.374;13.098;2022-08-19T03:49:22;7.80;;;7.07;;
7158;SDS011;3621;52.374;13.098;2022-08-19T03:51:50;7.37;;;6.87;;
7158;SDS011;3621;52.374;13.098;2022-08-19T03:54:19;6.13;;;5.60;;
7158;SDS011;3621;52.374;13.098;2022-08-19T03:56:49;8.50;;;7.60;;
7158;SDS011;3621;52.374;13.098;2022-08-19T03:59:18;7.93;;;7.33;;
7158;SDS011;3621;52.374;13.098;2022-08-19T04:01:51;7.47;;;6.90;;
7158;SDS011;3621;52.374;13.098;2022-08-19T04:04:18;6.10;;;5.70;;
7158;SDS011;3621;52.374;13.098;2022-08-19T04:06:45;6.37;;;5.87;;
7158;SDS011;3621;52.374;13.098;2022-08-19T04:09:12;6.27;;;5.87;;
7158;SDS011;3621;52.374;13.098;2022-08-19T04:11:41;7.60;;;6.90;;
7158;SDS011;3621;52.374;13.098;2022-08-19T04:14:10;6.90;;;6.40;;
7158;SDS011;3621;52.374;13.098;2022-08-19T04:16:39;7.17;;;6.63;;
7158;SDS011;3621;52.374;13.098;2022-08-19T04:19:06;8.37;;;7.60;;
7158;SDS011;3621;52.374;13.098;2022-08-19T04:21:33;9.20;;;8.50;;
7158;SDS011;3621;52.374;13.098;2022-08-19T04:24:01;8.20;;;7.40;;
7158;SDS011;3621;52.374;13.098;2022-08-19T04:26:29;7.90;;;7.20;;
7158;SDS011;3621;52.374;13.098;2022-08-19T04:29:02;8.00;;;7.30;;
7158;SDS011;3621;52.374;13.098;2022-08-19T04:31:32;8.27;;;7.77;;
7158;SDS011;3621;52.374;13.098;2022-08-19T04:34:00;7.70;;;7.20;;
7158;SDS011;3621;52.374;13.098;2022-08-19T04:36:31;8.93;;;8.23;;
7158;SDS011;3621;52.374;13.098;2022-08-19T04:39:00;9.10;;;8.33;;
7158;SDS011;3621;52.374;13.098;2022-08-19T04:41:29;7.27;;;6.77;;
7158;SDS011;3621;52.374;13.098;2022-08-19T04:44:15;8.67;;;8.07;;
7158;SDS011;3621;52.374;13.098;2022-08-19T04:46:43;7.60;;;7.00;;
7158;SDS011;3621;52.374;13.098;2022-08-19T04:49:10;8.70;;;8.10;;
7158;SDS011;3621;52.374;13.098;2022-08-19T04:51:39;9.33;;;8.63;;
7158;SDS011;3621;52.374;13.098;2022-08-19T04:54:07;8.30;;;7.63;;
7158;SDS011;3621;52.374;13.098;2022-08-19T04:56:34;8.23;;;7.50;;
7158;SDS011;3621;52.374;13.098;2022-08-19T04:59:02;6.97;;;6.47;;
7158;SDS011;3621;52.374;13.098;2022-08-19T05:01:31;9.00;;;8.10;;
7158;SDS011;3621;52.374;13.098;2022-08-19T05:04:00;8.23;;;7.53;;
7158;SDS011;3621;52.374;13.098;2022-08-19T05:06:30;7.60;;;7.03;;
7158;SDS011;3621;52.374;13.098;2022-08-19T05:08:59;8.50;;;7.83;;
7158;SDS011;3621;52.374;13.098;2022-08-19T05:11:27;7.73;;;7.03;;
7158;SDS011;3621;52.374;13.098;2022-08-19T05:13:55;7.37;;;6.87;;
7158;SDS011;3621;52.374;13.098;2022-08-19T05:16:23;6.50;;;6.10;;
7158;SDS011;3621;52.374;13.098;2022-08-19T05:18:53;7.30;;;6.80;;
7158;SDS011;3621;52.374;13.098;2022-08-19T05:21:38;7.60;;;6.83;;
7158;SDS011;3621;52.374;13.098;2022-08-19T05:24:23;7.30;;;6.80;;
7158;SDS011;3621;52.374;13.098;2022-08-19T05:26:52;8.63;;;7.83;;
7158;SDS011;3621;52.374;13.098;2022-08-19T05:29:22;8.10;;;7.40;;
7158;SDS011;3621;52.374;13.098;2022-08-19T05:31:51;7.77;;;7.07;;
7158;SDS011;3621;52.374;13.098;2022-08-19T05:34:22;8.13;;;7.53;;
7158;SDS011;3621;52.374;13.098;2022-08-19T05:36:51;8.10;;;7.40;;
7158;SDS011;3621;52.374;13.098;2022-08-19T05:39:21;8.10;;;7.40;;
7158;SDS011;3621;52.374;13.098;2022-08-19T05:41:48;8.10;;;7.40;;
7158;SDS011;3621;52.374;13.098;2022-08-19T05:44:17;8.33;;;7.83;;
7158;SDS011;3621;52.374;13.098;2022-08-19T05:46:46;9.23;;;8.43;;
7158;SDS011;3621;52.374;13.098;2022-08-19T05:49:13;8.50;;;7.90;;
7158;SDS011;3621;52.374;13.098;2022-08-19T05:51:43;11.00;;;8.30;;
7158;SDS011;3621;52.374;13.098;2022-08-19T05:54:10;8.27;;;7.67;;
7158;SDS011;3621;52.374;13.098;2022-08-19T05:56:38;8.40;;;7.90;;
7158;SDS011;3621;52.374;13.098;2022-08-19T05:59:06;8.73;;;7.50;;
7158;SDS011;3621;52.374;13.098;2022-08-19T06:01:36;8.07;;;7.50;;
7158;SDS011;3621;52.374;13.098;2022-08-19T06:04:04;7.70;;;7.20;;
7158;SDS011;3621;52.374;13.098;2022-08-19T06:06:32;8.97;;;8.07;;
7158;SDS011;3621;52.374;13.098;2022-08-19T06:09:01;8.97;;;8.27;;
7158;SDS011;3621;52.374;13.098;2022-08-19T06:11:32;8.70;;;8.00;;
7158;SDS011;3621;52.374;13.098;2022-08-19T06:14:01;8.87;;;8.17;;
7158;SDS011;3621;52.374;13.098;2022-08-19T06:16:29;9.93;;;9.10;;
7158;SDS011;3621;52.374;13.098;2022-08-19T06:19:00;9.03;;;8.33;;
7158;SDS011;3621;52.374;13.098;2022-08-19T06:21:31;9.40;;;8.50;;
7158;SDS011;3621;52.374;13.098;2022-08-19T06:23:58;8.87;;;8.07;;
7158;SDS011;3621;52.374;13.098;2022-08-19T06:26:27;8.57;;;7.97;;
7158;SDS011;3621;52.374;13.098;2022-08-19T06:28:54;8.70;;;8.00;;
7158;SDS011;3621;52.374;13.098;2022-08-19T06:31:27;9.30;;;8.60;;
7158;SDS011;3621;52.374;13.098;2022-08-19T06:33:56;9.80;;;9.00;;
7158;SDS011;3621;52.374;13.098;2022-08-19T06:36:24;9.40;;;8.70;;
7158;SDS011;3621;52.374;13.098;2022-08-19T06:38:56;10.47;;;9.53;;
7158;SDS011;3621;52.374;13.098;2022-08-19T06:41:24;9.83;;;8.93;;
7158;SDS011;3621;52.374;13.098;2022-08-19T06:43:53;8.97;;;8.33;;
7158;SDS011;3621;52.374;13.098;2022-08-19T06:46:21;9.53;;;8.53;;
7158;SDS011;3621;52.374;13.098;2022-08-19T06:48:49;9.67;;;8.70;;
7158;SDS011;3621;52.374;13.098;2022-08-19T06:51:18;10.07;;;9.20;;
7158;SDS011;3621;52.374;13.098;2022-08-19T06:53:45;9.63;;;8.73;;
7158;SDS011;3621;52.374;13.098;2022-08-19T06:56:13;9.73;;;8.90;;
7158;SDS011;3621;52.374;13.098;2022-08-19T06:58:42;9.00;;;8.30;;
7158;SDS011;3621;52.374;13.098;2022-08-19T07:01:10;8.27;;;7.67;;
7158;SDS011;3621;52.374;13.098;2022-08-19T07:03:37;8.80;;;8.20;;
7158;SDS011;3621;52.374;13.098;2022-08-19T07:06:05;8.87;;;8.17;;
7158;SDS011;3621;52.374;13.098;2022-08-19T07:08:36;9.20;;;8.30;;
7158;SDS011;3621;52.374;13.098;2022-08-19T07:11:06;8.83;;;8.13;;
7158;SDS011;3621;52.374;13.098;2022-08-19T07:13:34;9.33;;;8.53;;
7158;SDS011;3621;52.374;13.098;2022-08-19T07:16:02;9.67;;;8.80;;
7158;SDS011;3621;52.374;13.098;2022-08-19T07:18:32;9.67;;;8.87;;
7158;SDS011;3621;52.374;13.098;2022-08-19T07:21:03;8.63;;;8.00;;
7158;SDS011;3621;52.374;13.098;2022-08-19T07:23:30;9.23;;;8.53;;
7158;SDS011;3621;52.374;13.098;2022-08-19T07:25:57;9.47;;;8.00;;
7158;SDS011;3621;52.374;13.098;2022-08-19T07:28:31;9.30;;;8.50;;
7158;SDS011;3621;52.374;13.098;2022-08-19T07:30:58;9.80;;;8.90;;
7158;SDS011;3621;52.374;13.098;2022-08-19T07:33:26;10.47;;;9.60;;
7158;SDS011;3621;52.374;13.098;2022-08-19T07:35:58;9.83;;;9.10;;
7158;SDS011;3621;52.374;13.098;2022-08-19T07:38:25;10.30;;;9.47;;
7158;SDS011;3621;52.374;13.098;2022-08-19T07:40:52;10.33;;;9.43;;
7158;SDS011;3621;52.374;13.098;2022-08-19T07:43:19;10.87;;;9.97;;
7158;SDS011;3621;52.374;13.098;2022-08-19T07:45:50;9.67;;;8.93;;
7158;SDS011;3621;52.374;13.098;2022-08-19T07:48:17;10.00;;;9.23;;
7158;SDS011;3621;52.374;13.098;2022-08-19T07:50:45;12.53;;;9.70;;
7158;SDS011;3621;52.374;13.098;2022-08-19T07:53:14;10.23;;;9.43;;
7158;SDS011;3621;52.374;13.098;2022-08-19T07:55:41;10.53;;;9.67;;
7158;SDS011;3621;52.374;13.098;2022-08-19T07:58:08;11.13;;;10.23;;
7158;SDS011;3621;52.374;13.098;2022-08-19T08:00:37;11.40;;;10.50;;
7158;SDS011;3621;52.374;13.098;2022-08-19T08:03:05;12.50;;;11.00;;
7158;SDS011;3621;52.374;13.098;2022-08-19T08:05:33;11.03;;;10.13;;
7158;SDS011;3621;52.374;13.098;2022-08-19T08:08:19;11.10;;;10.30;;
7158;SDS011;3621;52.374;13.098;2022-08-19T08:11:04;11.93;;;10.93;;
7158;SDS011;3621;52.374;13.098;2022-08-19T08:13:31;10.80;;;10.00;;
7158;SDS011;3621;52.374;13.098;2022-08-19T08:16:00;10.80;;;10.00;;
7158;SDS011;3621;52.374;13.098;2022-08-19T08:18:27;10.97;;;9.93;;
7158;SDS011;3621;52.374;13.098;2022-08-19T08:20:55;11.17;;;10.37;;
7158;SDS011;3621;52.374;13.098;2022-08-19T08:23:24;10.50;;;9.70;;
7158;SDS011;3621;52.374;13.098;2022-08-19T08:25:52;11.37;;;10.37;;
7158;SDS011;3621;52.374;13.098;2022-08-19T08:28:21;11.67;;;10.57;;
7158;SDS011;3621;52.374;13.098;2022-08-19T08:30:49;12.40;;;11.40;;
7158;SDS011;3621;52.374;13.098;2022-08-19T08:33:17;11.53;;;10.63;;
7158;SDS011;3621;52.374;13.098;2022-08-19T08:35:45;12.70;;;11.50;;
7158;SDS011;3621;52.374;13.098;2022-08-19T08:38:12;12.33;;;11.40;;
7158;SDS011;3621;52.374;13.098;2022-08-19T08:40:44;12.00;;;11.00;;
7158;SDS011;3621;52.374;13.098;2022-08-19T08:43:19;12.07;;;11.17;;
7158;SDS011;3621;52.374;13.098;2022-08-19T08:45:52;11.50;;;10.60;;
7158;SDS011;3621;52.374;13.098;2022-08-19T08:48:27;12.00;;;11.10;;
7158;SDS011;3621;52.374;13.098;2022-08-19T08:51:02;11.83;;;10.93;;
7158;SDS011;3621;52.374;13.098;2022-08-19T08:53:32;12.37;;;11.47;;
7158;SDS011;3621;52.374;13.098;2022-08-19T08:56:03;12.90;;;11.77;;
7158;SDS011;3621;52.374;13.098;2022-08-19T08:58:36;12.60;;;11.67;;
7158;SDS011;3621;52.374;13.098;2022-08-19T09:01:11;11.40;;;10.30;;
7158;SDS011;3621;52.374;13.098;2022-08-19T09:03:39;13.03;;;11.97;;
7158;SDS011;3621;52.374;13.098;2022-08-19T09:06:12;11.53;;;10.73;;
7158;SDS011;3621;52.374;13.098;2022-08-19T09:08:45;11.63;;;10.83;;
7158;SDS011;3621;52.374;13.098;2022-08-19T09:11:22;10.70;;;9.90;;
7158;SDS011;3621;52.374;13.098;2022-08-19T09:14:02;11.30;;;10.30;;
7158;SDS011;3621;52.374;13.098;2022-08-19T09:16:36;12.13;;;11.23;;
7158;SDS011;3621;52.374;13.098;2022-08-19T09:19:06;11.70;;;10.80;;
7158;SDS011;3621;52.374;13.098;2022-08-19T09:21:35;10.53;;;9.83;;
7158;SDS011;3621;52.374;13.098;2022-08-19T09:24:03;10.53;;;9.73;;
7158;SDS011;3621;52.374;13.098;2022-08-19T09:26:32;12.40;;;11.40;;
7158;SDS011;3621;52.374;13.098;2022-08-19T09:29:00;12.23;;;11.30;;
7158;SDS011;3621;52.374;13.098;2022-08-19T09:31:30;12.70;;;11.70;;
7158;SDS011;3621;52.374;13.098;2022-08-19T09:33:58;12.97;;;11.90;;
7158;SDS011;3621;52.374;13.098;2022-08-19T09:36:26;14.67;;;13.47;;
7158;SDS011;3621;52.374;13.098;2022-08-19T09:38:57;13.00;;;12.00;;
7158;SDS011;3621;52.374;13.098;2022-08-19T09:41:25;14.33;;;13.07;;
7158;SDS011;3621;52.374;13.098;2022-08-19T09:43:54;13.93;;;12.87;;
7158;SDS011;3621;52.374;13.098;2022-08-19T09:46:22;17.70;;;13.07;;
7158;SDS011;3621;52.374;13.098;2022-08-19T09:48:50;15.07;;;13.87;;
7158;SDS011;3621;52.374;13.098;2022-08-19T09:51:18;14.63;;;13.30;;
7158;SDS011;3621;52.374;13.098;2022-08-19T09:53:47;15.27;;;13.80;;
7158;SDS011;3621;52.374;13.098;2022-08-19T09:56:15;15.57;;;14.17;;
7158;SDS011;3621;52.374;13.098;2022-08-19T09:58:43;14.50;;;13.40;;
7158;SDS011;3621;52.374;13.098;2022-08-19T10:01:16;18.80;;;13.80;;
7158;SDS011;3621;52.374;13.098;2022-08-19T10:03:46;15.40;;;14.10;;
7158;SDS011;3621;52.374;13.098;2022-08-19T10:06:15;14.90;;;13.60;;
7158;SDS011;3621;52.374;13.098;2022-08-19T10:08:42;17.67;;;16.13;;
7158;SDS011;3621;52.374;13.098;2022-08-19T10:11:09;19.33;;;16.67;;
7158;SDS011;3621;52.374;13.098;2022-08-19T10:13:37;20.47;;;18.33;;
7158;SDS011;3621;52.374;13.098;2022-08-19T10:16:05;20.10;;;18.03;;
7158;SDS011;3621;52.374;13.098;2022-08-19T10:18:36;20.57;;;18.77;;
7158;SDS011;3621;52.374;13.098;2022-08-19T10:21:05;22.57;;;20.20;;
7158;SDS011;3621;52.374;13.098;2022-08-19T10:23:35;20.10;;;18.30;;
7158;SDS011;3621;52.374;13.098;2022-08-19T10:26:02;23.30;;;20.97;;
7158;SDS011;3621;52.374;13.098;2022-08-19T10:28:31;21.73;;;19.60;;
7158;SDS011;3621;52.374;13.098;2022-08-19T10:30:58;20.77;;;18.77;;
7158;SDS011;3621;52.374;13.098;2022-08-19T10:33:29;20.77;;;18.87;;
7158;SDS011;3621;52.374;13.098;2022-08-19T10:35:59;18.93;;;17.13;;
7158;SDS011;3621;52.374;13.098;2022-08-19T10:38:27;21.33;;;19.43;;
7158;SDS011;3621;52.374;13.098;2022-08-19T10:40:55;18.90;;;17.13;;
7158;SDS011;3621;52.374;13.098;2022-08-19T10:43:21;20.00;;;17.73;;
7158;SDS011;3621;52.374;13.098;2022-08-19T10:45:53;21.97;;;19.87;;
7158;SDS011;3621;52.374;13.098;2022-08-19T10:48:24;21.53;;;19.40;;
7158;SDS011;3621;52.374;13.098;2022-08-19T10:50:51;20.57;;;18.67;;
7158;SDS011;3621;52.374;13.098;2022-08-19T10:53:37;20.80;;;18.90;;
7158;SDS011;3621;52.374;13.098;2022-08-19T10:56:04;20.53;;;18.53;;
7158;SDS011;3621;52.374;13.098;2022-08-19T10:58:48;22.60;;;20.50;;
7158;SDS011;3621;52.374;13.098;2022-08-19T11:01:15;22.13;;;19.87;;
7158;SDS011;3621;52.374;13.098;2022-08-19T11:03:42;23.07;;;20.90;;
7158;SDS011;3621;52.374;13.098;2022-08-19T11:06:10;20.50;;;18.37;;
7158;SDS011;3621;52.374;13.098;2022-08-19T11:08:38;22.00;;;19.97;;
7158;SDS011;3621;52.374;13.098;2022-08-19T11:11:07;20.40;;;18.50;;
7158;SDS011;3621;52.374;13.098;2022-08-19T11:13:35;21.47;;;19.50;;
7158;SDS011;3621;52.374;13.098;2022-08-19T11:16:06;23.00;;;20.90;;
7158;SDS011;3621;52.374;13.098;2022-08-19T11:18:35;22.40;;;20.23;;
7158;SDS011;3621;52.374;13.098;2022-08-19T11:21:07;21.33;;;19.37;;
7158;SDS011;3621;52.374;13.098;2022-08-19T11:23:36;22.60;;;20.30;;
7158;SDS011;3621;52.374;13.098;2022-08-19T11:26:04;21.57;;;19.27;;
7158;SDS011;3621;52.374;13.098;2022-08-19T11:28:31;22.23;;;20.00;;
7158;SDS011;3621;52.374;13.098;2022-08-19T11:30:59;20.27;;;18.43;;
7158;SDS011;3621;52.374;13.098;2022-08-19T11:33:28;22.10;;;20.00;;
7158;SDS011;3621;52.374;13.098;2022-08-19T11:35:56;22.10;;;19.90;;
7158;SDS011;3621;52.374;13.098;2022-08-19T11:38:23;21.53;;;19.60;;
7158;SDS011;3621;52.374;13.098;2022-08-19T11:40:54;20.90;;;18.90;;
7158;SDS011;3621;52.374;13.098;2022-08-19T11:43:24;22.13;;;19.50;;
7158;SDS011;3621;52.374;13.098;2022-08-19T11:45:52;22.77;;;20.40;;
7158;SDS011;3621;52.374;13.098;2022-08-19T11:48:19;22.03;;;19.80;;
7158;SDS011;3621;52.374;13.098;2022-08-19T11:50:47;23.10;;;20.80;;
7158;SDS011;3621;52.374;13.098;2022-08-19T11:53:14;21.30;;;19.40;;
7158;SDS011;3621;52.374;13.098;2022-08-19T11:55:41;21.37;;;19.23;;
7158;SDS011;3621;52.374;13.098;2022-08-19T11:58:09;19.60;;;17.70;;
7158;SDS011;3621;52.374;13.098;2022-08-19T12:00:39;20.90;;;18.83;;
7158;SDS011;3621;52.374;13.098;2022-08-19T12:03:06;20.70;;;18.80;;
7158;SDS011;3621;52.374;13.098;2022-08-19T12:05:36;19.37;;;17.70;;
7158;SDS011;3621;52.374;13.098;2022-08-19T12:08:04;18.60;;;16.90;;
7158;SDS011;3621;52.374;13.098;2022-08-19T12:10:30;18.63;;;16.83;;
7158;SDS011;3621;52.374;13.098;2022-08-19T12:12:58;17.83;;;16.23;;
7158;SDS011;3621;52.374;13.098;2022-08-19T12:15:25;18.50;;;16.80;;
7158;SDS011;3621;52.374;13.098;2022-08-19T12:17:56;19.17;;;17.37;;
7158;SDS011;3621;52.374;13.098;2022-08-19T12:20:24;19.73;;;18.00;;
7158;SDS011;3621;52.374;13.098;2022-08-19T12:22:51;20.53;;;18.70;;
7158;SDS011;3621;52.374;13.098;2022-08-19T12:25:18;19.37;;;17.67;;
7158;SDS011;3621;52.374;13.098;2022-08-19T12:27:45;19.10;;;17.10;;
7158;SDS011;3621;52.374;13.098;2022-08-19T12:30:14;18.10;;;16.40;;
7158;SDS011;3621;52.374;13.098;2022-08-19T12:32:41;18.33;;;16.63;;
7158;SDS011;3621;52.374;13.098;2022-08-19T12:35:10;18.13;;;16.10;;
7158;SDS011;3621;52.374;13.098;2022-08-19T12:37:37;18.00;;;16.23;;
7158;SDS011;3621;52.374;13.098;2022-08-19T12:40:07;16.03;;;14.60;;
7158;SDS011;3621;52.374;13.098;2022-08-19T12:42:36;17.53;;;16.03;;
7158;SDS011;3621;52.374;13.098;2022-08-19T12:45:07;16.20;;;14.90;;
7158;SDS011;3621;52.374;13.098;2022-08-19T12:47:35;17.47;;;15.87;;
7158;SDS011;3621;52.374;13.098;2022-08-19T12:50:03;14.87;;;13.50;;
7158;SDS011;3621;52.374;13.098;2022-08-19T12:52:35;14.10;;;12.90;;
7158;SDS011;3621;52.374;13.098;2022-08-19T12:55:03;16.23;;;14.67;;
7158;SDS011;3621;52.374;13.098;2022-08-19T12:57:32;14.80;;;13.50;;
7158;SDS011;3621;52.374;13.098;2022-08-19T13:00:02;15.80;;;14.40;;
7158;SDS011;3621;52.374;13.098;2022-08-19T13:02:34;16.47;;;15.00;;
7158;SDS011;3621;52.374;13.098;2022-08-19T13:05:01;16.80;;;15.20;;
7158;SDS011;3621;52.374;13.098;2022-08-19T13:07:29;14.73;;;13.50;;
7158;SDS011;3621;52.374;13.098;2022-08-19T13:09:59;17.17;;;15.30;;
7158;SDS011;3621;52.374;13.098;2022-08-19T13:12:26;14.60;;;13.40;;
7158;SDS011;3621;52.374;13.098;2022-08-19T13:14:54;14.43;;;13.23;;
7158;SDS011;3621;52.374;13.098;2022-08-19T13:17:21;15.17;;;13.90;;
7158;SDS011;3621;52.374;13.098;2022-08-19T13:19:48;13.93;;;12.60;;
7158;SDS011;3621;52.374;13.098;2022-08-19T13:22:16;13.60;;;12.50;;
7158;SDS011;3621;52.374;13.098;2022-08-19T13:24:44;11.83;;;10.93;;
7158;SDS011;3621;52.374;13.098;2022-08-19T13:27:12;11.77;;;10.87;;
7158;SDS011;3621;52.374;13.098;2022-08-19T13:29:39;12.53;;;11.60;;
7158;SDS011;3621;52.374;13.098;2022-08-19T13:32:23;13.57;;;12.37;;
7158;SDS011;3621;52.374;13.098;2022-08-19T13:35:08;11.30;;;10.23;;
7158;SDS011;3621;52.374;13.098;2022-08-19T13:37:35;12.50;;;11.07;;
7158;SDS011;3621;52.374;13.098;2022-08-19T13:40:08;11.30;;;10.30;;
7158;SDS011;3621;52.374;13.098;2022-08-19T13:42:39;11.43;;;10.33;;
7158;SDS011;3621;52.374;13.098;2022-08-19T13:45:07;12.20;;;11.20;;
7158;SDS011;3621;52.374;13.098;2022-08-19T13:47:34;13.43;;;12.23;;
7158;SDS011;3621;52.374;13.098;2022-08-19T13:50:09;12.30;;;11.30;;
7158;SDS011;3621;52.374;13.098;2022-08-19T13:52:37;12.83;;;11.73;;
7158;SDS011;3621;52.374;13.098;2022-08-19T13:55:04;11.13;;;10.13;;
7158;SDS011;3621;52.374;13.098;2022-08-19T13:57:31;12.00;;;11.10;;
7158;SDS011;3621;52.374;13.098;2022-08-19T14:00:00;10.80;;;10.03;;
7158;SDS011;3621;52.374;13.098;2022-08-19T14:02:29;11.80;;;10.67;;
7158;SDS011;3621;52.374;13.098;2022-08-19T14:04:56;10.87;;;10.07;;
7158;SDS011;3621;52.374;13.098;2022-08-19T14:07:24;12.33;;;11.23;;
7158;SDS011;3621;52.374;13.098;2022-08-19T14:09:50;12.30;;;11.40;;
7158;SDS011;3621;52.374;13.098;2022-08-19T14:12:18;12.10;;;11.10;;
7158;SDS011;3621;52.374;13.098;2022-08-19T14:14:46;13.00;;;12.00;;
7158;SDS011;3621;52.374;13.098;2022-08-19T14:17:15;12.57;;;11.57;;
7158;SDS011;3621;52.374;13.098;2022-08-19T14:19:42;11.80;;;10.90;;
7158;SDS011;3621;52.374;13.098;2022-08-19T14:22:09;11.83;;;10.60;;
7158;SDS011;3621;52.374;13.098;2022-08-19T14:24:36;14.50;;;11.40;;
7158;SDS011;3621;52.374;13.098;2022-08-19T14:27:04;11.37;;;10.40;;
7158;SDS011;3621;52.374;13.098;2022-08-19T14:29:32;10.63;;;9.83;;
7158;SDS011;3621;52.374;13.098;2022-08-19T14:31:59;13.13;;;11.27;;
7158;SDS011;3621;52.374;13.098;2022-08-19T14:34:27;11.00;;;10.00;;
7158;SDS011;3621;52.374;13.098;2022-08-19T14:36:56;11.03;;;10.13;;
7158;SDS011;3621;52.374;13.098;2022-08-19T14:39:23;11.20;;;10.20;;
7158;SDS011;3621;52.374;13.098;2022-08-19T14:41:50;11.73;;;10.73;;
7158;SDS011;3621;52.374;13.098;2022-08-19T14:44:17;10.43;;;9.60;;
7158;SDS011;3621;52.374;13.098;2022-08-19T14:46:44;10.60;;;9.80;;
7158;SDS011;3621;52.374;13.098;2022-08-19T14:49:11;10.60;;;9.90;;
7158;SDS011;3621;52.374;13.098;2022-08-19T14:51:39;10.90;;;10.10;;
7158;SDS011;3621;52.374;13.098;2022-08-19T14:54:07;10.73;;;9.77;;
7158;SDS011;3621;52.374;13.098;2022-08-19T14:56:33;9.90;;;9.20;;
7158;SDS011;3621;52.374;13.098;2022-08-19T14:59:00;10.20;;;9.40;;